createdAt,value
2022-08-25T00:00:24.810Z,20.87
2022-08-25T00:05:32.251Z,20.82
2022-08-25T00:10:42.454Z,20.75
2022-08-25T00:15:46.740Z,20.74
2022-08-25T00:20:50.135Z,20.72
2022-08-25T00:25:55.321Z,20.67
2022-08-25T00:30:58.659Z,20.59
2022-08-25T00:36:01.722Z,20.58
2022-08-25T00:41:08.569Z,20.53
2022-08-25T00:46:12.620Z,20.48
2022-08-25T00:51:19.141Z,20.48
2022-08-25T00:56:23.848Z,20.44
2022-08-25T01:01:26.830Z,20.40
2022-08-25T01:06:31.223Z,20.38
2022-08-25T01:11:35.394Z,20.30
2022-08-25T01:16:39.200Z,20.24
2022-08-25T01:21:46.531Z,20.21
2022-08-25T01:26:49.267Z,20.19
2022-08-25T01:31:57.709Z,20.10
2022-08-25T01:37:02.351Z,20.05
2022-08-25T01:42:20.260Z,19.98
2022-08-25T01:47:23.989Z,19.97
2022-08-25T01:52:30.726Z,19.92
2022-08-25T01:57:33.590Z,19.86
2022-08-25T02:02:36.324Z,19.89
2022-08-25T02:07:44.709Z,19.93
2022-08-25T02:12:47.539Z,19.93
2022-08-25T02:17:50.321Z,19.97
2022-08-25T02:22:56.963Z,19.89
2022-08-25T02:28:00.230Z,19.87
2022-08-25T02:33:03.039Z,19.85
2022-08-25T02:38:07.866Z,19.80
2022-08-25T02:43:10.673Z,19.78
2022-08-25T02:48:13.560Z,19.82
2022-08-25T02:53:18.163Z,19.75
2022-08-25T02:58:21.289Z,19.68
2022-08-25T03:03:24.303Z,19.65
2022-08-25T03:08:28.598Z,19.62
2022-08-25T03:13:32.235Z,19.62
2022-08-25T03:18:35.279Z,19.58
2022-08-25T03:23:39.903Z,19.55
2022-08-25T03:28:42.914Z,19.50
2022-08-25T03:33:46.106Z,19.45
2022-08-25T03:38:50.909Z,19.45
2022-08-25T03:43:53.774Z,19.55
2022-08-25T03:48:57.196Z,19.47
2022-08-25T03:54:01.929Z,19.42
2022-08-25T03:59:04.962Z,19.36
2022-08-25T04:04:08.939Z,19.28
2022-08-25T04:09:13.554Z,19.28
2022-08-25T04:14:16.604Z,19.28
2022-08-25T04:19:20.203Z,19.23
2022-08-25T04:24:24.305Z,19.20
2022-08-25T04:29:27.471Z,19.21
2022-08-25T04:34:31.555Z,19.27
2022-08-25T04:39:36.051Z,19.26
2022-08-25T04:44:39.023Z,19.28
2022-08-25T04:49:42.139Z,19.30
2022-08-25T04:54:46.361Z,19.33
2022-08-25T04:59:49.310Z,19.35
2022-08-25T05:04:52.341Z,19.40
2022-08-25T05:09:56.433Z,19.48
2022-08-25T05:15:19.756Z,19.51
2022-08-25T05:20:22.498Z,19.52
2022-08-25T05:25:26.548Z,19.62
2022-08-25T05:30:29.335Z,19.73
2022-08-25T05:35:32.213Z,19.83
2022-08-25T05:40:36.414Z,19.88
2022-08-25T05:45:39.525Z,19.95
2022-08-25T05:50:42.576Z,20.01
2022-08-25T05:55:46.858Z,20.10
2022-08-25T06:00:49.673Z,20.24
2022-08-25T06:05:52.559Z,20.33
2022-08-25T06:10:56.625Z,20.38
2022-08-25T06:16:01.089Z,20.48
2022-08-25T06:21:09.469Z,20.53
2022-08-25T06:26:20.733Z,20.59
2022-08-25T06:31:24.548Z,20.73
2022-08-25T06:36:27.359Z,20.85
2022-08-25T06:41:36.650Z,21.00
2022-08-25T06:46:40.122Z,21.04
2022-08-25T06:51:42.839Z,21.13
2022-08-25T06:56:47.383Z,21.41
2022-08-25T07:01:52.847Z,21.45
2022-08-25T07:06:55.884Z,21.63
2022-08-25T07:12:00.079Z,21.76
2022-08-25T07:17:02.852Z,21.89
2022-08-25T07:22:13.410Z,22.01
2022-08-25T07:27:17.717Z,22.15
2022-08-25T07:32:20.464Z,22.32
2022-08-25T07:37:47.774Z,22.49
2022-08-25T07:42:49.630Z,22.59
2022-08-25T07:47:53.781Z,22.62
2022-08-25T07:52:57.067Z,22.70
2022-08-25T07:58:01.584Z,22.75
2022-08-25T08:03:05.827Z,22.84
2022-08-25T08:08:10.868Z,23.00
2022-08-25T08:13:18.368Z,23.23
2022-08-25T08:18:21.251Z,23.35
2022-08-25T08:23:27.681Z,23.57
2022-08-25T08:28:31.755Z,23.74
2022-08-25T08:33:35.587Z,23.83
2022-08-25T08:38:44.180Z,23.83
2022-08-25T08:43:51.707Z,23.93
2022-08-25T08:49:02.489Z,24.07
2022-08-25T08:54:15.389Z,24.13
2022-08-25T08:59:21.639Z,24.26
2022-08-25T09:04:28.855Z,24.37
2022-08-25T09:09:35.937Z,24.42
2022-08-25T09:14:54.024Z,24.45
2022-08-25T09:20:18.662Z,24.57
2022-08-25T09:25:48.824Z,24.94
2022-08-25T09:30:56.466Z,25.15
2022-08-25T09:35:59.761Z,25.34
2022-08-25T09:41:08.402Z,25.60
2022-08-25T09:46:14.208Z,25.72
2022-08-25T09:51:26.575Z,25.78
2022-08-25T09:56:31.275Z,25.69
2022-08-25T10:01:36.173Z,25.68
2022-08-25T10:06:45.881Z,25.69
2022-08-25T10:11:49.159Z,25.50
2022-08-25T10:16:54.469Z,25.51
2022-08-25T10:22:08.523Z,25.97
2022-08-25T10:27:22.491Z,25.80
2022-08-25T10:32:34.883Z,26.02
2022-08-25T10:37:44.860Z,26.14
2022-08-25T10:42:56.637Z,26.45
2022-08-25T10:48:14.454Z,26.44
2022-08-25T10:53:36.694Z,26.55
2022-08-25T10:59:04.500Z,27.00
2022-08-25T11:04:11.530Z,26.63
2022-08-25T11:09:17.380Z,26.90
2022-08-25T11:14:22.736Z,27.41
2022-08-25T11:19:32.787Z,27.17
2022-08-25T11:24:44.101Z,27.25
2022-08-25T11:29:59.438Z,27.50
2022-08-25T11:35:08.022Z,27.48
2022-08-25T11:40:29.771Z,28.17
2022-08-25T11:45:54.131Z,29.28
2022-08-25T11:51:04.875Z,30.41
2022-08-25T11:56:09.677Z,29.46
2022-08-25T12:01:48.189Z,28.72
2022-08-25T12:07:29.425Z,27.59
2022-08-25T12:12:37.631Z,30.04
2022-08-25T12:17:40.841Z,32.50
2022-08-25T12:22:57.429Z,32.64
2022-08-25T12:28:09.365Z,31.89
2022-08-25T12:33:17.273Z,30.68
2022-08-25T12:38:31.734Z,29.40
2022-08-25T12:43:37.807Z,29.43
2022-08-25T12:49:00.232Z,28.84
2022-08-25T12:54:15.891Z,29.95
2022-08-25T12:59:23.736Z,31.32
2022-08-25T13:04:43.759Z,32.01
2022-08-25T13:10:12.093Z,32.28
2022-08-25T13:15:17.068Z,32.46
2022-08-25T13:20:23.618Z,32.42
2022-08-25T13:25:32.786Z,32.64
2022-08-25T13:30:39.141Z,32.67
2022-08-25T13:35:49.546Z,32.92
2022-08-25T13:41:09.230Z,33.15
2022-08-25T13:46:12.435Z,33.16
2022-08-25T13:51:24.278Z,33.20
2022-08-25T13:56:41.173Z,33.23
2022-08-25T14:01:49.659Z,33.16
2022-08-25T14:07:08.389Z,32.89
2022-08-25T14:12:31.358Z,32.72
2022-08-25T14:17:39.707Z,32.25
2022-08-25T14:22:43.220Z,31.96
2022-08-25T14:28:13.751Z,32.12
2022-08-25T14:33:18.125Z,32.66
2022-08-25T14:38:23.337Z,32.12
2022-08-25T14:43:32.003Z,31.73
2022-08-25T14:48:38.348Z,32.77
2022-08-25T14:53:42.014Z,31.89
2022-08-25T14:58:51.252Z,31.31
2022-08-25T15:03:59.173Z,32.08
2022-08-25T15:09:11.883Z,32.54
2022-08-25T15:14:17.388Z,31.06
2022-08-25T15:19:22.043Z,31.35
2022-08-25T15:24:26.354Z,31.82
2022-08-25T15:29:31.938Z,32.00
2022-08-25T15:34:35.728Z,31.93
2022-08-25T15:39:39.875Z,31.84
2022-08-25T15:44:53.397Z,31.83
2022-08-25T15:50:05.799Z,31.49
2022-08-25T15:55:09.991Z,30.69
2022-08-25T16:00:16.732Z,30.83
2022-08-25T16:05:25.689Z,31.24
2022-08-25T16:10:28.742Z,31.28
2022-08-25T16:15:33.447Z,31.23
2022-08-25T16:20:37.167Z,31.04
2022-08-25T16:25:41.656Z,30.65
2022-08-25T16:30:52.687Z,30.26
2022-08-25T16:36:06.570Z,29.89
2022-08-25T16:41:10.527Z,29.42
2022-08-25T16:46:18.197Z,28.73
2022-08-25T16:51:29.439Z,28.40
2022-08-25T16:56:35.121Z,28.26
2022-08-25T17:01:40.838Z,28.05
2022-08-25T17:06:51.525Z,27.93
2022-08-25T17:11:57.057Z,27.86
2022-08-25T17:17:01.398Z,27.73
2022-08-25T17:22:04.269Z,27.55
2022-08-25T17:27:09.213Z,27.39
2022-08-25T17:32:13.348Z,27.22
2022-08-25T17:37:17.124Z,27.04
2022-08-25T17:42:20.849Z,26.84
2022-08-25T17:47:25.130Z,26.64
2022-08-25T17:52:27.878Z,26.52
2022-08-25T17:57:30.555Z,26.41
2022-08-25T18:02:34.939Z,26.32
2022-08-25T18:07:37.835Z,26.20
2022-08-25T18:12:40.869Z,26.13
2022-08-25T18:17:47.779Z,26.05
2022-08-25T18:22:50.762Z,25.97
2022-08-25T18:27:54.455Z,25.88
2022-08-25T18:33:00.061Z,25.76
2022-08-25T18:38:21.197Z,25.68
2022-08-25T18:43:24.038Z,25.66
2022-08-25T18:48:28.694Z,25.60
2022-08-25T18:53:37.041Z,25.52
2022-08-25T18:58:40.807Z,25.48
2022-08-25T19:03:45.485Z,25.40
2022-08-25T19:08:48.655Z,25.33
2022-08-25T19:13:51.709Z,25.29
2022-08-25T19:18:56.589Z,25.22
2022-08-25T19:24:01.140Z,25.16
2022-08-25T19:29:09.090Z,25.09
2022-08-25T19:34:15.994Z,25.04
2022-08-25T19:39:20.116Z,24.95
2022-08-25T19:44:23.360Z,24.92
2022-08-25T19:49:31.819Z,24.80
2022-08-25T19:54:37.997Z,24.73
2022-08-25T19:59:47.334Z,24.71
2022-08-25T20:04:55.583Z,24.66
2022-08-25T20:09:59.917Z,24.58
2022-08-25T20:15:03.066Z,24.54
2022-08-25T20:20:10.103Z,24.48
2022-08-25T20:25:17.651Z,24.40
2022-08-25T20:30:23.524Z,24.37
2022-08-25T20:35:29.193Z,24.36
2022-08-25T20:40:32.593Z,24.32
2022-08-25T20:45:35.503Z,24.31
2022-08-25T20:50:40.786Z,24.24
2022-08-25T20:55:44.029Z,24.14
2022-08-25T21:00:48.245Z,24.04
2022-08-25T21:05:53.477Z,23.99
2022-08-25T21:10:57.146Z,23.95
2022-08-25T21:16:02.664Z,23.94
2022-08-25T21:21:14.024Z,23.87
2022-08-25T21:26:18.601Z,23.82
2022-08-25T21:31:22.744Z,23.76
2022-08-25T21:36:29.732Z,23.71
2022-08-25T21:41:34.185Z,23.69
2022-08-25T21:46:37.727Z,23.60
2022-08-25T21:51:43.488Z,23.56
2022-08-25T21:56:49.843Z,23.49
2022-08-25T22:01:56.262Z,23.50
2022-08-25T22:07:01.152Z,23.45
2022-08-25T22:12:06.222Z,23.38
2022-08-25T22:17:12.369Z,23.32
2022-08-25T22:22:20.958Z,23.40
2022-08-25T22:27:24.083Z,23.43
2022-08-25T22:32:26.881Z,23.38
2022-08-25T22:37:30.971Z,23.45
2022-08-25T22:42:37.346Z,23.40
2022-08-25T22:47:41.219Z,23.32
2022-08-25T22:52:45.411Z,23.19
2022-08-25T22:57:48.441Z,23.09
2022-08-25T23:02:53.189Z,23.06
2022-08-25T23:07:57.642Z,22.99
2022-08-25T23:13:00.495Z,22.89
2022-08-25T23:18:03.477Z,22.86
2022-08-25T23:23:08.072Z,22.84
2022-08-25T23:28:11.095Z,22.79
2022-08-25T23:33:15.537Z,22.76
2022-08-25T23:38:23.153Z,22.69
2022-08-25T23:43:26.618Z,22.67
2022-08-25T23:48:30.553Z,22.66
2022-08-25T23:53:35.462Z,22.62
2022-08-25T23:58:38.370Z,22.61
